createdAt,value
2022-12-01T00:00:16.243Z,100774.97
2022-12-01T00:03:19.195Z,100779.91
2022-12-01T00:06:22.071Z,100783.19
2022-12-01T00:09:43.438Z,100782.94
2022-12-01T00:12:46.152Z,100787.84
2022-12-01T00:15:49.259Z,100788.38
2022-12-01T00:18:53.699Z,100782.75
2022-12-01T00:21:57.120Z,100794.69
2022-12-01T00:24:59.652Z,100786.91
2022-12-01T00:28:02.593Z,100796.41
2022-12-01T00:31:09.232Z,100788.84
2022-12-01T00:34:22.716Z,100785.56
2022-12-01T00:37:25.563Z,100792.53
2022-12-01T00:40:28.407Z,100799.91
2022-12-01T00:43:31.243Z,100794.91
2022-12-01T00:46:34.302Z,100793.69
2022-12-01T00:49:37.024Z,100794.19
2022-12-01T00:52:39.883Z,100805.59
2022-12-01T00:55:42.473Z,100802.59
2022-12-01T00:58:45.682Z,100800.94
2022-12-01T01:01:48.536Z,100805.19
2022-12-01T01:04:53.798Z,100800.41
2022-12-01T01:07:56.376Z,100802.66
2022-12-01T01:11:00.639Z,100793.37
2022-12-01T01:14:03.721Z,100797.00
2022-12-01T01:17:06.837Z,100798.78
2022-12-01T01:20:10.195Z,100791.25
2022-12-01T01:23:14.191Z,100799.34
2022-12-01T01:26:22.738Z,100798.66
2022-12-01T01:29:25.537Z,100793.25
2022-12-01T01:32:28.228Z,100798.28
2022-12-01T01:35:31.314Z,100792.66
2022-12-01T01:38:35.218Z,100784.78
2022-12-01T01:41:38.025Z,100786.59
2022-12-01T01:44:57.913Z,100788.06
2022-12-01T01:48:00.996Z,100789.63
2022-12-01T01:51:04.586Z,100794.44
2022-12-01T01:54:15.711Z,100791.00
2022-12-01T01:57:25.920Z,100789.25
2022-12-01T02:00:29.447Z,100789.09
2022-12-01T02:03:37.194Z,100788.41
2022-12-01T02:06:39.819Z,100787.03
2022-12-01T02:09:42.828Z,100781.84
2022-12-01T02:12:51.054Z,100768.03
2022-12-01T02:16:21.918Z,100775.13
2022-12-01T02:19:43.362Z,100769.22
2022-12-01T02:22:50.719Z,100770.28
2022-12-01T02:26:08.291Z,100766.88
2022-12-01T02:29:38.348Z,100770.50
2022-12-01T02:33:12.013Z,100766.34
2022-12-01T02:36:46.337Z,100771.75
2022-12-01T02:40:18.266Z,100773.38
2022-12-01T02:43:31.747Z,100771.19
2022-12-01T02:46:40.259Z,100769.03
2022-12-01T02:49:50.270Z,100767.22
2022-12-01T02:52:55.112Z,100769.13
2022-12-01T02:55:59.270Z,100766.66
2022-12-01T02:59:05.842Z,100771.19
2022-12-01T03:02:17.311Z,100769.44
2022-12-01T03:05:26.576Z,100766.03
2022-12-01T03:08:46.051Z,100776.97
2022-12-01T03:12:10.583Z,100774.59
2022-12-01T03:15:45.863Z,100778.00
2022-12-01T03:18:59.390Z,100771.66
2022-12-01T03:22:10.033Z,100775.69
2022-12-01T03:25:14.786Z,100769.72
2022-12-01T03:28:22.865Z,100765.00
2022-12-01T03:31:35.005Z,100756.56
2022-12-01T03:34:50.264Z,100752.00
2022-12-01T03:38:17.204Z,100749.03
2022-12-01T03:41:30.494Z,100747.25
2022-12-01T03:44:43.332Z,100745.00
2022-12-01T03:47:46.792Z,100746.78
2022-12-01T03:51:27.012Z,100745.87
2022-12-01T03:54:54.729Z,100750.38
2022-12-01T03:58:03.235Z,100739.88
2022-12-01T04:01:08.115Z,100746.84
2022-12-01T04:04:13.359Z,100742.81
2022-12-01T04:07:16.036Z,100742.78
2022-12-01T04:10:19.074Z,100752.56
2022-12-01T04:13:25.797Z,100751.31
2022-12-01T04:16:30.682Z,100756.69
2022-12-01T04:19:33.359Z,100749.00
2022-12-01T04:22:39.082Z,100740.59
2022-12-01T04:25:41.604Z,100736.56
2022-12-01T04:28:44.660Z,100743.06
2022-12-01T04:31:47.251Z,100740.34
2022-12-01T04:34:50.237Z,100741.75
2022-12-01T04:37:52.802Z,100744.91
2022-12-01T04:40:55.618Z,100755.06
2022-12-01T04:43:58.387Z,100764.00
2022-12-01T04:47:01.289Z,100782.34
2022-12-01T04:50:04.327Z,100787.94
2022-12-01T04:53:07.284Z,100781.97
2022-12-01T04:56:10.038Z,100779.00
2022-12-01T04:59:13.221Z,100781.59
2022-12-01T05:02:15.900Z,100775.72
2022-12-01T05:05:22.595Z,100774.12
2022-12-01T05:08:25.336Z,100778.88
2022-12-01T05:11:29.719Z,100781.62
2022-12-01T05:14:33.237Z,100780.56
2022-12-01T05:17:37.269Z,100781.66
2022-12-01T05:20:57.854Z,100775.63
2022-12-01T05:24:00.639Z,100773.69
2022-12-01T05:27:03.229Z,100766.56
2022-12-01T05:30:07.212Z,100771.91
2022-12-01T05:33:09.747Z,100769.31
2022-12-01T05:36:12.709Z,100775.56
2022-12-01T05:39:15.698Z,100770.44
2022-12-01T05:42:18.461Z,100774.56
2022-12-01T05:45:21.057Z,100778.56
2022-12-01T05:48:24.872Z,100779.22
2022-12-01T05:51:30.650Z,100775.31
2022-12-01T05:54:33.556Z,100780.56
2022-12-01T05:57:36.287Z,100776.72
2022-12-01T06:00:45.689Z,100783.50
2022-12-01T06:03:49.108Z,100780.75
2022-12-01T06:06:51.821Z,100786.81
2022-12-01T06:09:56.051Z,100786.03
2022-12-01T06:12:58.570Z,100780.75
2022-12-01T06:16:04.152Z,100790.53
2022-12-01T06:19:07.039Z,100792.22
2022-12-01T06:22:11.046Z,100793.72
2022-12-01T06:25:13.793Z,100792.56
2022-12-01T06:28:17.559Z,100786.50
2022-12-01T06:31:20.226Z,100788.84
2022-12-01T06:34:23.488Z,100785.59
2022-12-01T06:37:27.602Z,100794.94
2022-12-01T06:40:30.631Z,100796.41
2022-12-01T06:43:36.669Z,100797.38
2022-12-01T06:46:39.834Z,100787.38
2022-12-01T06:49:42.483Z,100795.12
2022-12-01T06:52:45.633Z,100800.22
2022-12-01T06:55:48.340Z,100786.94
2022-12-01T06:58:53.200Z,100795.03
2022-12-01T07:01:57.934Z,100786.84
2022-12-01T07:05:01.042Z,100788.84
2022-12-01T07:08:03.701Z,100786.41
2022-12-01T07:11:12.747Z,100793.59
2022-12-01T07:14:23.868Z,100794.16
2022-12-01T07:17:27.425Z,100801.41
2022-12-01T07:20:30.209Z,100800.47
2022-12-01T07:23:33.720Z,100803.91
2022-12-01T07:26:36.310Z,100797.66
2022-12-01T07:29:39.566Z,100803.81
2022-12-01T07:32:42.227Z,100796.41
2022-12-01T07:35:45.144Z,100803.63
2022-12-01T07:38:48.117Z,100793.72
2022-12-01T07:41:51.180Z,100800.03
2022-12-01T07:44:53.750Z,100797.19
2022-12-01T07:47:56.723Z,100797.34
2022-12-01T07:50:59.481Z,100801.78
2022-12-01T07:54:05.346Z,100798.84
2022-12-01T07:57:08.062Z,100807.94
2022-12-01T08:00:12.251Z,100807.38
2022-12-01T08:03:18.398Z,100811.69
2022-12-01T08:06:22.561Z,100812.34
2022-12-01T08:09:25.960Z,100821.09
2022-12-01T08:12:28.742Z,100805.84
2022-12-01T08:15:31.961Z,100812.91
2022-12-01T08:18:39.809Z,100808.06
2022-12-01T08:21:45.230Z,100805.16
2022-12-01T08:24:48.281Z,100805.63
2022-12-01T08:27:52.725Z,100808.66
2022-12-01T08:30:56.108Z,100815.06
2022-12-01T08:33:59.198Z,100811.34
2022-12-01T08:37:02.074Z,100816.75
2022-12-01T08:40:05.876Z,100813.41
2022-12-01T08:43:12.346Z,100817.66
2022-12-01T08:46:22.544Z,100823.03
2022-12-01T08:49:26.396Z,100813.94
2022-12-01T08:52:33.004Z,100811.88
2022-12-01T08:55:35.677Z,100814.44
2022-12-01T08:58:38.571Z,100808.97
2022-12-01T09:01:52.570Z,100813.25
2022-12-01T09:04:55.972Z,100816.00
2022-12-01T09:08:17.384Z,100814.06
2022-12-01T09:11:20.252Z,100819.72
2022-12-01T09:14:23.960Z,100813.22
2022-12-01T09:17:28.325Z,100816.94
2022-12-01T09:20:31.026Z,100811.72
2022-12-01T09:23:34.087Z,100808.47
2022-12-01T09:26:36.664Z,100806.94
2022-12-01T09:29:40.171Z,100803.72
2022-12-01T09:32:43.083Z,100802.28
2022-12-01T09:35:45.996Z,100797.03
2022-12-01T09:38:48.691Z,100797.72
2022-12-01T09:41:58.036Z,100798.06
2022-12-01T09:45:02.838Z,100794.16
2022-12-01T09:48:08.043Z,100799.25
2022-12-01T09:51:16.113Z,100798.28
2022-12-01T09:54:19.497Z,100793.03
2022-12-01T09:57:35.508Z,100780.22
2022-12-01T10:00:43.669Z,100784.91
2022-12-01T10:03:53.161Z,100779.56
2022-12-01T10:07:19.501Z,100777.03
2022-12-01T10:10:36.780Z,100774.00
2022-12-01T10:13:39.519Z,100776.56
2022-12-01T10:16:51.356Z,100776.09
2022-12-01T10:19:57.004Z,100758.44
2022-12-01T10:23:09.258Z,100768.50
2022-12-01T10:26:18.778Z,100759.09
2022-12-01T10:29:47.382Z,100758.16
2022-12-01T10:32:52.776Z,100753.38
2022-12-01T10:35:57.009Z,100757.34
2022-12-01T10:39:02.002Z,100753.56
2022-12-01T10:42:19.542Z,100744.19
2022-12-01T10:45:26.513Z,100746.09
2022-12-01T10:48:29.544Z,100736.69
2022-12-01T10:52:06.239Z,100736.34
2022-12-01T10:55:27.766Z,100741.97
2022-12-01T10:58:34.200Z,100736.19
2022-12-01T11:01:38.209Z,100740.75
2022-12-01T11:04:46.354Z,100747.84
2022-12-01T11:07:49.915Z,100725.00
2022-12-01T11:10:52.649Z,100717.16
2022-12-01T11:13:57.437Z,100726.53
2022-12-01T11:17:26.339Z,100715.16
2022-12-01T11:20:38.071Z,100716.03
2022-12-01T11:23:52.412Z,100716.47
2022-12-01T11:26:59.734Z,100702.13
2022-12-01T11:30:08.489Z,100706.78
2022-12-01T11:33:15.275Z,100702.59
2022-12-01T11:36:34.827Z,100703.75
2022-12-01T11:39:39.573Z,100710.22
2022-12-01T11:42:54.160Z,100710.16
2022-12-01T11:45:59.829Z,100705.53
2022-12-01T11:49:03.082Z,100702.69
2022-12-01T11:52:34.751Z,100703.72
2022-12-01T11:55:37.469Z,100698.31
2022-12-01T11:58:42.939Z,100706.47
2022-12-01T12:02:15.891Z,100706.91
2022-12-01T12:05:45.503Z,100690.81
2022-12-01T12:09:24.244Z,100703.53
2022-12-01T12:12:44.577Z,100693.19
2022-12-01T12:15:50.500Z,100699.59
2022-12-01T12:19:25.388Z,100705.47
2022-12-01T12:23:02.658Z,100684.47
2022-12-01T12:26:28.409Z,100679.91
2022-12-01T12:30:18.377Z,100682.06
2022-12-01T12:33:45.177Z,100686.53
2022-12-01T12:37:08.190Z,100689.88
2022-12-01T12:40:39.780Z,100689.66
2022-12-01T12:44:03.400Z,100702.59
2022-12-01T12:47:35.982Z,100699.91
2022-12-01T12:50:44.929Z,100691.63
2022-12-01T12:53:54.309Z,100694.69
2022-12-01T12:57:20.898Z,100693.38
2022-12-01T13:00:28.953Z,100693.81
2022-12-01T13:03:37.529Z,100698.41
2022-12-01T13:06:46.973Z,100679.75
2022-12-01T13:09:57.484Z,100687.06
2022-12-01T13:13:42.054Z,100681.34
2022-12-01T13:16:51.988Z,100682.81
2022-12-01T13:19:54.801Z,100685.34
2022-12-01T13:22:59.700Z,100686.28
2022-12-01T13:26:08.135Z,100681.81
2022-12-01T13:29:17.829Z,100690.34
2022-12-01T13:32:37.389Z,100685.97
2022-12-01T13:35:40.255Z,100692.41
2022-12-01T13:38:43.936Z,100697.66
2022-12-01T13:42:07.306Z,100690.03
2022-12-01T13:45:20.063Z,100690.16
2022-12-01T13:48:52.967Z,100688.34
2022-12-01T13:52:34.679Z,100693.25
2022-12-01T13:55:56.987Z,100678.38
2022-12-01T13:59:00.350Z,100687.22
2022-12-01T14:02:18.462Z,100682.19
2022-12-01T14:05:40.288Z,100681.78
2022-12-01T14:08:48.328Z,100676.41
2022-12-01T14:12:01.342Z,100680.91
2022-12-01T14:15:33.422Z,100677.41
2022-12-01T14:18:42.916Z,100671.50
2022-12-01T14:21:49.729Z,100673.66
2022-12-01T14:24:53.238Z,100672.56
2022-12-01T14:28:01.293Z,100673.81
2022-12-01T14:31:05.955Z,100669.66
2022-12-01T14:34:17.333Z,100672.00
2022-12-01T14:37:27.435Z,100673.38
2022-12-01T14:40:30.494Z,100678.47
2022-12-01T14:43:53.523Z,100666.69
2022-12-01T14:47:10.448Z,100669.31
2022-12-01T14:50:16.658Z,100677.84
2022-12-01T14:53:22.742Z,100673.25
2022-12-01T14:56:26.724Z,100685.25
2022-12-01T14:59:30.057Z,100676.94
2022-12-01T15:02:33.380Z,100690.09
2022-12-01T15:05:43.805Z,100679.38
2022-12-01T15:09:10.525Z,100681.56
2022-12-01T15:12:26.174Z,100679.53
2022-12-01T15:15:32.199Z,100675.13
2022-12-01T15:18:39.357Z,100678.25
2022-12-01T15:21:42.579Z,100680.47
2022-12-01T15:24:46.029Z,100685.72
2022-12-01T15:28:11.226Z,100681.56
2022-12-01T15:31:14.331Z,100681.25
2022-12-01T15:34:28.687Z,100676.25
2022-12-01T15:37:42.610Z,100672.22
2022-12-01T15:41:27.507Z,100680.47
2022-12-01T15:44:35.799Z,100686.22
2022-12-01T15:47:43.493Z,100680.66
2022-12-01T15:51:02.225Z,100683.94
2022-12-01T15:54:05.476Z,100681.50
2022-12-01T15:57:08.300Z,100679.66
2022-12-01T16:00:22.666Z,100683.63
2022-12-01T16:03:25.989Z,100689.56
2022-12-01T16:06:40.495Z,100687.66
2022-12-01T16:10:04.322Z,100682.06
2022-12-01T16:13:34.947Z,100685.50
2022-12-01T16:16:44.159Z,100681.94
2022-12-01T16:19:47.425Z,100682.13
2022-12-01T16:23:05.460Z,100681.13
2022-12-01T16:26:09.005Z,100686.28
2022-12-01T16:29:20.990Z,100687.53
2022-12-01T16:32:40.856Z,100685.16
2022-12-01T16:35:44.132Z,100688.72
2022-12-01T16:38:46.983Z,100690.63
2022-12-01T16:41:50.327Z,100688.22
2022-12-01T16:44:53.489Z,100695.34
2022-12-01T16:47:56.673Z,100678.94
2022-12-01T16:51:03.498Z,100691.03
2022-12-01T16:54:06.854Z,100685.84
2022-12-01T16:57:09.592Z,100683.78
2022-12-01T17:00:16.365Z,100691.22
2022-12-01T17:03:26.653Z,100687.34
2022-12-01T17:06:29.604Z,100688.97
2022-12-01T17:09:32.826Z,100687.63
2022-12-01T17:12:39.761Z,100686.09
2022-12-01T17:15:47.033Z,100692.47
2022-12-01T17:18:50.042Z,100689.44
2022-12-01T17:21:53.046Z,100693.88
2022-12-01T17:24:56.072Z,100690.53
2022-12-01T17:27:59.407Z,100700.75
2022-12-01T17:31:04.554Z,100694.84
2022-12-01T17:34:10.379Z,100698.25
2022-12-01T17:37:19.107Z,100704.78
2022-12-01T17:40:24.170Z,100703.47
2022-12-01T17:43:27.721Z,100700.47
2022-12-01T17:46:30.749Z,100701.37
2022-12-01T17:49:35.702Z,100697.84
2022-12-01T17:52:38.483Z,100700.97
2022-12-01T17:55:41.660Z,100699.84
2022-12-01T17:58:45.091Z,100701.59
2022-12-01T18:01:49.269Z,100699.94
2022-12-01T18:04:52.821Z,100703.72
2022-12-01T18:07:55.800Z,100702.78
2022-12-01T18:11:03.801Z,100705.78
2022-12-01T18:14:06.498Z,100712.72
2022-12-01T18:17:09.762Z,100707.53
2022-12-01T18:20:13.135Z,100704.03
2022-12-01T18:23:16.020Z,100701.91
2022-12-01T18:26:20.568Z,100698.88
2022-12-01T18:29:26.225Z,100696.50
2022-12-01T18:32:29.232Z,100698.94
2022-12-01T18:35:32.388Z,100705.31
2022-12-01T18:38:35.986Z,100704.19
2022-12-01T18:41:42.543Z,100697.03
2022-12-01T18:44:50.247Z,100706.94
2022-12-01T18:47:54.651Z,100705.91
2022-12-01T18:51:02.921Z,100710.72
2022-12-01T18:54:07.526Z,100709.84
2022-12-01T18:57:11.907Z,100707.13
2022-12-01T19:00:16.495Z,100698.34
2022-12-01T19:03:20.342Z,100711.06
2022-12-01T19:06:27.607Z,100706.62
2022-12-01T19:09:30.730Z,100709.66
2022-12-01T19:12:40.848Z,100709.66
2022-12-01T19:15:43.717Z,100704.28
2022-12-01T19:18:47.842Z,100711.03
2022-12-01T19:21:51.127Z,100716.78
2022-12-01T19:24:56.862Z,100714.66
2022-12-01T19:27:59.834Z,100710.53
2022-12-01T19:31:07.864Z,100708.50
2022-12-01T19:34:11.184Z,100713.19
2022-12-01T19:37:14.575Z,100709.28
2022-12-01T19:40:18.997Z,100715.37
2022-12-01T19:43:22.317Z,100714.09
2022-12-01T19:46:27.556Z,100715.91
2022-12-01T19:49:31.345Z,100719.97
2022-12-01T19:52:36.057Z,100722.81
2022-12-01T19:55:39.283Z,100720.75
2022-12-01T19:58:43.815Z,100724.00
2022-12-01T20:01:47.196Z,100725.00
2022-12-01T20:04:51.642Z,100723.38
2022-12-01T20:07:54.859Z,100726.28
2022-12-01T20:11:01.448Z,100720.66
2022-12-01T20:14:05.717Z,100725.78
2022-12-01T20:17:12.898Z,100722.53
2022-12-01T20:20:18.559Z,100719.38
2022-12-01T20:23:22.223Z,100723.59
2022-12-01T20:26:31.571Z,100727.75
2022-12-01T20:29:34.802Z,100723.56
2022-12-01T20:32:37.930Z,100722.53
2022-12-01T20:35:40.892Z,100724.84
2022-12-01T20:38:43.985Z,100724.38
2022-12-01T20:41:48.235Z,100732.56
2022-12-01T20:44:51.302Z,100735.03
2022-12-01T20:47:54.586Z,100736.97
2022-12-01T20:51:03.935Z,100738.47
2022-12-01T20:57:34.360Z,100743.97
2022-12-01T21:00:40.084Z,100740.94
2022-12-01T21:03:45.050Z,100740.22
2022-12-01T21:06:50.046Z,100743.97
2022-12-01T21:09:52.904Z,100743.31
2022-12-01T21:13:23.508Z,100749.56
2022-12-01T21:16:28.772Z,100747.59
2022-12-01T21:19:47.482Z,100747.00
2022-12-01T21:22:51.564Z,100756.41
2022-12-01T21:25:55.341Z,100762.63
2022-12-01T21:29:00.124Z,100761.69
2022-12-01T21:32:25.261Z,100758.66
2022-12-01T21:35:30.557Z,100764.88
2022-12-01T21:38:34.009Z,100757.78
2022-12-01T21:41:37.921Z,100755.19
2022-12-01T21:44:41.062Z,100756.13
2022-12-01T21:47:43.990Z,100748.38
2022-12-01T21:50:52.264Z,100758.22
2022-12-01T21:53:56.641Z,100761.22
2022-12-01T21:56:59.534Z,100764.16
2022-12-01T22:00:25.999Z,100761.06
2022-12-01T22:03:31.151Z,100761.06
2022-12-01T22:06:43.257Z,100763.34
2022-12-01T22:09:55.448Z,100764.22
2022-12-01T22:12:58.038Z,100770.34
2022-12-01T22:16:00.854Z,100771.50
2022-12-01T22:19:15.866Z,100775.19
2022-12-01T22:22:25.429Z,100765.66
2022-12-01T22:25:29.271Z,100771.50
2022-12-01T22:28:35.373Z,100764.12
2022-12-01T22:31:39.612Z,100762.41
2022-12-01T22:34:49.585Z,100760.72
2022-12-01T22:37:54.104Z,100754.44
2022-12-01T22:41:00.980Z,100754.66
2022-12-01T22:44:03.897Z,100746.78
2022-12-01T22:47:09.696Z,100749.44
2022-12-01T22:50:27.299Z,100752.19
2022-12-01T22:53:31.033Z,100755.44
2022-12-01T22:56:40.637Z,100754.34
2022-12-01T22:59:45.407Z,100751.22
2022-12-01T23:02:49.856Z,100742.69
2022-12-01T23:05:56.301Z,100745.47
2022-12-01T23:08:58.856Z,100742.97
2022-12-01T23:12:05.778Z,100739.59
2022-12-01T23:15:32.705Z,100743.62
2022-12-01T23:18:35.549Z,100751.34
2022-12-01T23:21:38.370Z,100741.09
2022-12-01T23:24:41.472Z,100749.88
2022-12-01T23:27:46.723Z,100745.03
2022-12-01T23:30:55.006Z,100739.28
2022-12-01T23:33:57.694Z,100745.22
2022-12-01T23:37:00.998Z,100742.81
2022-12-01T23:40:34.076Z,100747.97
2022-12-01T23:43:48.396Z,100752.03
2022-12-01T23:46:55.108Z,100757.69
2022-12-01T23:50:03.081Z,100755.81
2022-12-01T23:53:05.943Z,100754.50
2022-12-01T23:56:19.302Z,100756.50
2022-12-01T23:59:23.104Z,100763.69
